Time;durP1;ratioP1;P1;durP2;ratioP2;P2;SDS_P1;SDS_P2;PMS_P1;PMS_P2;Temp;Humidity;BMP_temperature;BMP_pressure;BME280_temperature;BME280_humidity;BME280_pressure;Samples;Min_cycle;Max_cycle;Signal;HPM_P1;HPM_P2
2022/08/04 00:01:20;;;;;;;;;2.20;2.20;;;;;-145.45;100.00;57426.63;5090573;27;45306;-73
2022/08/04 00:03:59;;;;;;;;;2.75;1.75;;;;;-145.45;100.00;57426.63;5101970;27;45252;-73
2022/08/04 00:06:49;;;;;;;;;3.25;2.75;;;;;-145.45;100.00;57426.63;5101795;27;45284;-73
2022/08/04 00:09:29;;;;;;;;;2.25;2.25;;;;;-145.45;100.00;57426.63;5101857;27;45340;-73
2022/08/04 00:11:57;;;;;;;;;2.50;2.50;;;;;-145.45;100.00;57426.63;5101312;27;45355;-73
2022/08/04 00:14:24;;;;;;;;;2.00;2.00;;;;;-145.45;100.00;57426.63;5101925;27;45441;-73
2022/08/04 00:16:53;;;;;;;;;1.75;0.50;;;;;-145.45;100.00;57426.63;5101369;27;45331;-73
2022/08/04 00:19:42;;;;;;;;;1.00;0.75;;;;;-145.45;100.00;57426.63;5100598;27;45435;-73
2022/08/04 00:22:10;;;;;;;;;2.75;1.25;;;;;-145.45;100.00;57426.63;5101500;27;45224;-73
2022/08/04 00:24:36;;;;;;;;;1.00;1.00;;;;;-145.45;100.00;57426.63;5101736;27;45252;-73
2022/08/04 00:27:02;;;;;;;;;6.00;1.50;;;;;-145.45;100.00;57426.63;5092991;27;45178;-73
2022/08/04 00:29:28;;;;;;;;;0.50;0.25;;;;;-145.45;100.00;57426.63;5080747;27;46127;-73
2022/08/04 00:31:56;;;;;;;;;4.25;2.75;;;;;-145.45;100.00;57426.63;5080761;28;45653;-73
2022/08/04 00:34:27;;;;;;;;;3.00;2.00;;;;;-145.45;100.00;57426.63;5085685;27;45315;-73
2022/08/04 00:36:54;;;;;;;;;3.00;3.00;;;;;-145.45;100.00;57426.63;5080589;28;45335;-73
2022/08/04 00:39:21;;;;;;;;;2.00;2.00;;;;;-145.45;100.00;57426.63;5080885;27;45406;-73
2022/08/04 00:41:49;;;;;;;;;3.25;3.25;;;;;-145.45;100.00;57426.63;5080616;27;45382;-73
2022/08/04 00:44:45;;;;;;;;;2.50;2.00;;;;;-145.45;100.00;57426.63;5080757;27;45299;-73
2022/08/04 00:47:32;;;;;;;;;2.25;2.00;;;;;-145.45;100.00;57426.63;5080542;28;45209;-73
2022/08/04 00:50:00;;;;;;;;;1.75;1.75;;;;;-145.45;100.00;57426.63;5080635;28;46413;-73
2022/08/04 00:52:55;;;;;;;;;4.25;1.50;;;;;-145.45;100.00;57426.63;5062039;28;45352;-73
2022/08/04 00:55:23;;;;;;;;;3.50;2.25;;;;;-145.45;100.00;57426.63;5080628;28;45307;-73
2022/08/04 00:58:00;;;;;;;;;4.75;3.00;;;;;-145.45;100.00;57426.63;5080560;28;45327;-73
2022/08/04 01:00:31;;;;;;;;;2.50;2.50;;;;;-145.45;100.00;57426.63;5060431;28;48372;-73
2022/08/04 01:03:13;;;;;;;;;4.00;2.25;;;;;-145.45;100.00;57426.63;5080341;28;45220;-73
2022/08/04 01:05:51;;;;;;;;;3.00;3.00;;;;;-145.45;100.00;57426.63;5080478;28;45354;-73
2022/08/04 01:08:25;;;;;;;;;3.75;2.25;;;;;-145.45;100.00;57426.63;5080203;27;46090;-73
2022/08/04 01:10:53;;;;;;;;;3.00;3.00;;;;;-145.45;100.00;57426.63;5080353;28;45237;-73
2022/08/04 01:13:30;;;;;;;;;2.00;2.00;;;;;-145.45;100.00;57426.63;5080145;28;45221;-73
2022/08/04 01:16:04;;;;;;;;;3.25;1.75;;;;;-145.45;100.00;57426.63;5080402;28;45314;-73
2022/08/04 01:18:57;;;;;;;;;2.50;2.50;;;;;-145.45;100.00;57426.63;5079913;28;45244;-74
2022/08/04 01:21:28;;;;;;;;;3.25;2.00;;;;;-145.45;100.00;57426.63;5080035;27;45280;-73
2022/08/04 01:24:12;;;;;;;;;2.00;2.00;;;;;-145.45;100.00;57426.63;5080173;28;45358;-73
2022/08/04 01:27:05;;;;;;;;;5.25;3.50;;;;;-145.45;100.00;57426.63;5079866;28;45470;-73
2022/08/04 01:29:34;;;;;;;;;4.00;3.00;;;;;-145.45;100.00;57426.63;5080039;27;45586;-73
2022/08/04 01:32:01;;;;;;;;;2.75;2.50;;;;;-145.45;100.00;57426.63;5079683;28;45512;-73
2022/08/04 01:34:51;;;;;;;;;2.50;2.50;;;;;-145.45;100.00;57426.63;5084575;27;45457;-73
2022/08/04 01:37:33;;;;;;;;;2.25;2.25;;;;;-145.45;100.00;57426.63;5067736;28;45553;-73
2022/08/04 01:40:07;;;;;;;;;2.00;2.00;;;;;-145.45;100.00;57426.63;5088278;27;45419;-73
2022/08/04 01:42:35;;;;;;;;;3.25;3.25;;;;;-145.45;100.00;57426.63;5100091;27;46461;-73
2022/08/04 01:45:05;;;;;;;;;3.00;1.50;;;;;-145.45;100.00;57426.63;5100262;27;45256;-73
2022/08/04 01:47:35;;;;;;;;;5.75;2.50;;;;;-145.45;100.00;57426.63;5099952;27;45283;-73
2022/08/04 01:50:09;;;;;;;;;2.50;2.50;;;;;-145.45;100.00;57426.63;5081491;27;45554;-73
2022/08/04 01:52:37;;;;;;;;;2.00;2.00;;;;;-145.45;100.00;57426.63;5099878;27;46356;-73
2022/08/04 01:55:06;;;;;;;;;5.00;4.00;;;;;-145.45;100.00;57426.63;5100245;27;45475;-74
2022/08/04 01:57:42;;;;;;;;;2.75;2.00;;;;;-145.45;100.00;57426.63;5081637;27;45324;-73
2022/08/04 02:00:13;;;;;;;;;8.50;4.00;;;;;-145.45;100.00;57426.63;5098927;27;45492;-73
2022/08/04 02:02:39;;;;;;;;;1.75;1.75;;;;;-145.45;100.00;57426.63;5080806;27;45506;-73
2022/08/04 02:05:08;;;;;;;;;2.50;2.50;;;;;-145.45;100.00;57426.63;5099866;27;45383;-73
2022/08/04 02:07:56;;;;;;;;;4.00;3.00;;;;;-145.45;100.00;57426.63;5100198;27;45261;-73
2022/08/04 02:10:34;;;;;;;;;4.25;2.25;;;;;-145.45;100.00;57426.63;5100537;27;45501;-73
2022/08/04 02:13:30;;;;;;;;;5.00;2.25;;;;;-145.45;100.00;57426.63;5103264;27;46094;-73
2022/08/04 02:16:38;;;;;;;;;6.00;3.75;;;;;-145.45;100.00;57426.63;5083590;27;45274;-72
2022/08/04 02:19:24;;;;;;;;;3.75;3.00;;;;;-145.45;100.00;57426.63;5102811;27;45174;-73
2022/08/04 02:21:56;;;;;;;;;4.00;3.00;;;;;-145.45;100.00;57426.63;5103369;27;45264;-73
2022/08/04 02:24:26;;;;;;;;;3.75;3.50;;;;;-145.45;100.00;57426.63;5103263;27;45315;-73
2022/08/04 02:26:55;;;;;;;;;4.50;4.00;;;;;-145.45;100.00;57426.63;5096255;27;45205;-73
2022/08/04 02:29:38;;;;;;;;;3.00;3.00;;;;;-145.45;100.00;57426.63;5082912;27;45297;-73
2022/08/04 02:32:08;;;;;;;;;3.00;3.00;;;;;-145.45;100.00;57426.63;5082411;28;45766;-73
2022/08/04 02:35:06;;;;;;;;;2.00;2.00;;;;;-145.45;100.00;57426.63;5087208;27;45233;-73
2022/08/04 02:37:34;;;;;;;;;2.75;2.75;;;;;-145.45;100.00;57426.63;5082580;27;45246;-73
2022/08/04 02:40:05;;;;;;;;;4.25;3.00;;;;;-145.45;100.00;57426.63;5082585;27;45268;-73
2022/08/04 02:42:32;;;;;;;;;3.25;3.25;;;;;-145.45;100.00;57426.63;5076621;28;46076;-73
2022/08/04 02:44:58;;;;;;;;;4.00;4.00;;;;;-145.45;100.00;57426.63;5082487;27;46389;-73
2022/08/04 02:47:26;;;;;;;;;2.75;2.75;;;;;-145.45;100.00;57426.63;5082301;27;45461;-73
2022/08/04 02:49:54;;;;;;;;;5.25;4.50;;;;;-145.45;100.00;57426.63;5082652;28;45343;-73
2022/08/04 02:52:20;;;;;;;;;3.00;3.00;;;;;-145.45;100.00;57426.63;5082387;27;45434;-73
2022/08/04 02:54:52;;;;;;;;;7.00;6.33;;;;;-145.45;100.00;57426.63;5082354;28;45315;-73
2022/08/04 02:57:22;;;;;;;;;6.00;6.00;;;;;-145.45;100.00;57426.63;5082270;27;45450;-73
2022/08/04 03:00:05;;;;;;;;;5.33;4.00;;;;;-145.45;100.00;57426.63;5082483;28;45343;-73
2022/08/04 03:03:00;;;;;;;;;5.00;5.00;;;;;-145.45;100.00;57426.63;5063328;28;46648;-73
2022/08/04 03:06:04;;;;;;;;;6.67;5.00;;;;;-145.45;100.00;57426.63;5082013;28;45573;-73
2022/08/04 03:08:48;;;;;;;;;5.00;5.00;;;;;-145.45;100.00;57426.63;5047512;27;45455;-73
2022/08/04 03:11:44;;;;;;;;;5.67;4.00;;;;;-145.45;100.00;57426.63;5082062;27;45191;-73
2022/08/04 03:14:26;;;;;;;;;3.33;3.33;;;;;-145.45;100.00;57426.63;5072938;27;45744;-73
2022/08/04 03:16:54;;;;;;;;;3.00;3.00;;;;;-145.45;100.00;57426.63;5102077;27;45269;-73
2022/08/04 03:19:41;;;;;;;;;5.67;4.67;;;;;-145.45;100.00;57426.63;5102350;27;45222;-74
2022/08/04 03:22:39;;;;;;;;;2.67;2.00;;;;;-145.45;100.00;57426.63;5101503;27;45363;-73
2022/08/04 03:25:22;;;;;;;;;4.33;3.67;;;;;-145.45;100.00;57426.63;5083938;27;46254;-74
2022/08/04 03:27:56;;;;;;;;;3.33;3.33;;;;;-145.45;100.00;57426.63;5087076;27;45399;-73
2022/08/04 03:30:50;;;;;;;;;6.00;4.67;;;;;-145.45;100.00;57426.63;5063581;28;46013;-73
2022/08/04 03:33:42;;;;;;;;;4.00;4.00;;;;;-145.45;100.00;57426.63;5081480;28;45148;-73
2022/08/04 03:36:46;;;;;;;;;4.67;4.33;;;;;-145.45;100.00;57426.63;5081640;27;45240;-73
2022/08/04 03:39:17;;;;;;;;;5.00;4.67;;;;;-145.45;100.00;57426.63;5081495;28;46417;-73
2022/08/04 03:41:57;;;;;;;;;4.33;4.00;;;;;-145.45;100.00;57426.63;5081633;28;45238;-73
2022/08/04 03:44:47;;;;;;;;;4.67;3.67;;;;;-145.45;100.00;57426.63;5081584;28;45228;-73
2022/08/04 03:47:38;;;;;;;;;7.67;4.33;;;;;-145.45;100.00;57426.63;5081278;27;45273;-73
2022/08/04 03:50:37;;;;;;;;;3.00;3.00;;;;;-145.45;100.00;57426.63;5081463;27;46120;-73
2022/08/04 03:53:27;;;;;;;;;3.33;3.33;;;;;-145.45;100.00;57426.63;5090829;27;45235;-73
2022/08/04 03:56:17;;;;;;;;;4.00;4.00;;;;;-145.45;100.00;57426.63;5101978;27;45382;-73
2022/08/04 03:58:55;;;;;;;;;3.33;3.33;;;;;-145.45;100.00;57426.63;5083207;27;47238;-73
2022/08/04 04:01:43;;;;;;;;;5.00;4.00;;;;;-145.45;100.00;57426.63;5101616;27;45441;-73
2022/08/04 04:04:27;;;;;;;;;3.00;3.00;;;;;-145.45;100.00;57426.63;5059610;27;45283;-73
2022/08/04 04:07:33;;;;;;;;;3.00;3.00;;;;;-145.45;100.00;57426.63;5101947;27;45285;-73
2022/08/04 04:10:08;;;;;;;;;5.33;2.33;;;;;-145.45;100.00;57426.63;5101516;27;45224;-73
2022/08/04 04:13:00;;;;;;;;;4.33;3.67;;;;;-145.45;100.00;57426.63;5082887;27;47026;-73
2022/08/04 04:15:41;;;;;;;;;5.00;3.67;;;;;-145.45;100.00;57426.63;5101520;27;45384;-73
2022/08/04 04:18:12;;;;;;;;;5.00;3.00;;;;;-145.45;100.00;57426.63;5100046;27;45242;-72
2022/08/04 04:20:37;;;;;;;;;3.00;2.00;;;;;-145.45;100.00;57426.63;5081226;27;45303;-73
2022/08/04 04:23:08;;;;;;;;;2.33;2.33;;;;;-145.45;100.00;57426.63;5080893;28;45623;-73
2022/08/04 04:25:35;;;;;;;;;4.00;3.00;;;;;-145.45;100.00;57426.63;5062709;28;45237;-73
2022/08/04 04:28:31;;;;;;;;;3.33;3.33;;;;;-145.45;100.00;57426.63;5075888;28;45417;-73
2022/08/04 04:31:32;;;;;;;;;3.67;3.67;;;;;-145.45;100.00;57426.63;5062382;27;45526;-73
2022/08/04 04:34:14;;;;;;;;;5.33;4.00;;;;;-145.45;100.00;57426.63;5100842;27;45442;-72
2022/08/04 04:37:08;;;;;;;;;5.00;5.00;;;;;-145.45;100.00;57426.63;5093787;27;45538;-73
2022/08/04 04:40:01;;;;;;;;;4.33;4.00;;;;;-145.45;100.00;57426.63;5080774;27;45310;-73
2022/08/04 04:42:58;;;;;;;;;7.67;4.67;;;;;-145.45;100.00;57426.63;5080457;28;45318;-73
2022/08/04 04:45:54;;;;;;;;;4.00;4.00;;;;;-145.45;100.00;57426.63;5080585;27;46061;-73
2022/08/04 04:48:45;;;;;;;;;5.00;5.00;;;;;-145.45;100.00;57426.63;5072214;27;45694;-72
2022/08/04 04:51:26;;;;;;;;;6.67;3.33;;;;;-145.45;100.00;57426.63;5101164;27;45440;-73
2022/08/04 04:54:12;;;;;;;;;4.33;3.00;;;;;-145.45;100.00;57426.63;5100946;27;45268;-72
2022/08/04 04:56:55;;;;;;;;;4.00;4.00;;;;;-145.45;100.00;57426.63;5100731;27;45346;-72
2022/08/04 04:59:23;;;;;;;;;3.00;3.00;;;;;-145.45;100.00;57426.63;5100986;27;45165;-73
2022/08/04 05:02:16;;;;;;;;;5.00;4.00;;;;;-145.45;100.00;57426.63;5082346;27;45303;-73
2022/08/04 05:05:13;;;;;;;;;6.00;4.00;;;;;-145.45;100.00;57426.63;5100778;27;45434;-73
2022/08/04 05:07:51;;;;;;;;;4.67;3.00;;;;;-145.45;100.00;57426.63;5100829;27;46247;-72
2022/08/04 05:10:23;;;;;;;;;6.00;5.00;;;;;-145.45;100.00;57426.63;5100614;27;45330;-73
2022/08/04 05:13:10;;;;;;;;;3.33;3.33;;;;;-145.45;100.00;57426.63;5100703;27;45421;-73
2022/08/04 05:15:40;;;;;;;;;5.33;3.00;;;;;-145.45;100.00;57426.63;5100599;27;45341;-73
2022/08/04 05:18:11;;;;;;;;;4.00;4.00;;;;;-145.45;100.00;57426.63;5100325;27;45283;-73
2022/08/04 05:20:42;;;;;;;;;3.00;3.00;;;;;-145.45;100.00;57426.63;5100546;27;45311;-74
2022/08/04 05:23:23;;;;;;;;;4.67;4.67;;;;;-145.45;100.00;57426.63;5100708;27;45578;-73
2022/08/04 05:26:03;;;;;;;;;4.67;3.33;;;;;-145.45;100.00;57426.63;5100407;27;45457;-73
2022/08/04 05:28:36;;;;;;;;;4.00;3.00;;;;;-145.45;100.00;57426.63;5087014;27;45339;-73
2022/08/04 05:31:11;;;;;;;;;4.33;3.67;;;;;-145.45;100.00;57426.63;5100271;27;45423;-73
2022/08/04 05:33:46;;;;;;;;;2.67;2.67;;;;;-145.45;100.00;57426.63;5100626;27;45189;-72
2022/08/04 05:36:17;;;;;;;;;3.00;3.00;;;;;-145.45;100.00;57426.63;5082881;27;45610;-73
2022/08/04 05:38:44;;;;;;;;;5.33;4.00;;;;;-145.45;100.00;57426.63;5061332;28;45286;-73
2022/08/04 05:41:12;;;;;;;;;3.67;3.67;;;;;-145.45;100.00;57426.63;5079663;28;45444;-73
2022/08/04 05:43:42;;;;;;;;;3.00;2.00;;;;;-145.45;100.00;57426.63;5079964;28;45241;-73
2022/08/04 05:46:09;;;;;;;;;6.33;4.00;;;;;-145.45;100.00;57426.63;5078782;27;45336;-73
2022/08/04 05:48:36;;;;;;;;;7.00;4.00;;;;;-145.45;100.00;57426.63;5061439;28;46708;-72
2022/08/04 05:51:04;;;;;;;;;3.00;3.00;;;;;-145.45;100.00;57426.63;5079681;27;45311;-73
2022/08/04 05:53:30;;;;;;;;;3.67;3.67;;;;;-145.45;100.00;57426.63;5079899;27;45267;-73
2022/08/04 05:55:57;;;;;;;;;5.33;4.67;;;;;-145.45;100.00;57426.63;5079419;28;45324;-72
2022/08/04 05:58:24;;;;;;;;;3.67;3.67;;;;;-145.45;100.00;57426.63;5061658;28;45391;-72
2022/08/04 06:00:51;;;;;;;;;3.00;1.00;;;;;-145.45;100.00;57426.63;5079477;28;45261;-72
2022/08/04 06:03:18;;;;;;;;;3.00;3.00;;;;;-145.45;100.00;57426.63;5078637;28;45189;-72
2022/08/04 06:05:46;;;;;;;;;6.67;5.00;;;;;-145.45;100.00;57426.63;5079329;28;45284;-72
2022/08/04 06:08:11;;;;;;;;;5.00;4.00;;;;;-145.45;100.00;57426.63;5079235;27;46493;-72
2022/08/04 06:10:39;;;;;;;;;3.33;3.00;;;;;-145.45;100.00;57426.63;5079444;27;45326;-72
2022/08/04 06:13:10;;;;;;;;;4.67;4.00;;;;;-145.45;100.00;57426.63;5078616;28;45363;-72
2022/08/04 06:15:39;;;;;;;;;2.33;2.33;;;;;-145.45;100.00;57426.63;5079337;27;45338;-72
2022/08/04 06:18:08;;;;;;;;;3.00;3.00;;;;;-145.45;100.00;57426.63;5079117;28;46290;-72
2022/08/04 06:20:35;;;;;;;;;4.67;2.67;;;;;-145.45;100.00;57426.63;5079405;28;45366;-72
2022/08/04 06:23:07;;;;;;;;;4.33;4.33;;;;;-145.45;100.00;57426.63;5079350;28;45443;-72
2022/08/04 06:25:38;;;;;;;;;4.00;3.67;;;;;-145.45;100.00;57426.63;5079094;28;45525;-73
2022/08/04 06:28:07;;;;;;;;;5.00;4.00;;;;;-145.45;100.00;57426.63;5073693;28;47734;-72
2022/08/04 06:30:34;;;;;;;;;3.67;3.67;;;;;-145.45;100.00;57426.63;5061036;28;45328;-72
2022/08/04 06:33:02;;;;;;;;;3.00;3.00;;;;;-145.45;100.00;57426.63;5078982;28;45305;-72
2022/08/04 06:35:29;;;;;;;;;3.00;2.00;;;;;-145.45;100.00;57426.63;5076386;27;45598;-73
2022/08/04 06:37:56;;;;;;;;;2.33;2.33;;;;;-145.45;100.00;57426.63;5099258;27;46045;-72
2022/08/04 06:40:23;;;;;;;;;3.33;3.33;;;;;-145.45;100.00;57426.63;5099590;27;45251;-73
2022/08/04 06:42:50;;;;;;;;;2.00;2.00;;;;;-145.45;100.00;57426.63;5099579;27;45415;-73
2022/08/04 06:45:17;;;;;;;;;4.67;3.33;;;;;-145.45;100.00;57426.63;5099356;27;45318;-73
2022/08/04 06:47:43;;;;;;;;;2.67;2.67;;;;;-145.45;100.00;57426.63;5080200;27;46873;-73
2022/08/04 06:50:10;;;;;;;;;4.00;3.00;;;;;-145.45;100.00;57426.63;5099418;27;45187;-72
2022/08/04 06:52:36;;;;;;;;;7.00;4.00;;;;;-145.45;100.00;57426.63;5099313;27;45460;-72
2022/08/04 06:55:02;;;;;;;;;4.33;2.67;;;;;-145.45;100.00;57426.63;5099267;27;45345;-73
2022/08/04 06:57:29;;;;;;;;;1.75;1.75;;;;;-145.45;100.00;57426.63;5101212;27;46272;-72
2022/08/04 07:00:10;;;;;;;;;3.67;2.67;;;;;-145.45;100.00;57426.63;5102911;27;45339;-72
2022/08/04 07:02:50;;;;;;;;;2.00;2.00;;;;;-145.45;100.00;57426.63;5102783;27;45434;-72
2022/08/04 07:05:17;;;;;;;;;3.75;1.50;;;;;-145.45;100.00;57426.63;5102557;27;45323;-73
2022/08/04 07:07:43;;;;;;;;;2.50;2.50;;;;;-145.45;100.00;57426.63;5102672;27;45326;-72
2022/08/04 07:10:10;;;;;;;;;2.00;2.00;;;;;-145.45;100.00;57426.63;5102615;27;45170;-72
2022/08/04 07:12:38;;;;;;;;;4.25;2.25;;;;;-145.45;100.00;57426.63;5102614;27;45252;-73
2022/08/04 07:15:05;;;;;;;;;1.25;1.25;;;;;-145.45;100.00;57426.63;5102485;27;45366;-72
2022/08/04 07:17:32;;;;;;;;;4.25;2.00;;;;;-145.45;100.00;57426.63;5102390;27;45987;-72
2022/08/04 07:19:58;;;;;;;;;2.00;2.00;;;;;-145.45;100.00;57426.63;5102362;27;45334;-72
2022/08/04 07:22:25;;;;;;;;;1.75;1.75;;;;;-145.45;100.00;57426.63;5083799;27;45499;-72
2022/08/04 07:24:56;;;;;;;;;2.50;1.00;;;;;-145.45;100.00;57426.63;5083754;27;45799;-72
2022/08/04 07:27:23;;;;;;;;;3.00;2.00;;;;;-145.45;100.00;57426.63;5083596;27;47102;-73
2022/08/04 07:29:49;;;;;;;;;3.00;1.00;;;;;-145.45;100.00;57426.63;5102510;27;45449;-72
2022/08/04 07:32:16;;;;;;;;;2.75;2.75;;;;;-145.45;100.00;57426.63;5102265;27;45264;-72
2022/08/04 07:34:42;;;;;;;;;3.00;2.00;;;;;-145.45;100.00;57426.63;5097110;27;45330;-72
2022/08/04 07:37:08;;;;;;;;;2.25;2.00;;;;;-145.45;100.00;57426.63;5081559;27;45229;-73
2022/08/04 07:39:35;;;;;;;;;2.25;2.25;;;;;-145.45;100.00;57426.63;5081615;27;45348;-73
2022/08/04 07:42:02;;;;;;;;;2.00;1.50;;;;;-145.45;100.00;57426.63;5081844;27;45349;-73
2022/08/04 07:44:31;;;;;;;;;2.00;2.00;;;;;-145.45;100.00;57426.63;5078330;28;45580;-72
2022/08/04 07:46:58;;;;;;;;;3.25;1.00;;;;;-145.45;100.00;57426.63;5081552;28;46384;-72
2022/08/04 07:49:25;;;;;;;;;1.75;1.50;;;;;-145.45;100.00;57426.63;5081398;27;45452;-72
2022/08/04 07:51:51;;;;;;;;;2.00;1.75;;;;;-145.45;100.00;57426.63;5081874;28;45424;-72
2022/08/04 07:54:17;;;;;;;;;2.00;2.00;;;;;-145.45;100.00;57426.63;5081424;27;45337;-72
2022/08/04 07:56:43;;;;;;;;;2.00;2.00;;;;;-145.45;100.00;57426.63;5072080;28;46440;-72
2022/08/04 07:59:09;;;;;;;;;5.75;1.75;;;;;-145.45;100.00;57426.63;5081246;27;45278;-72
2022/08/04 08:01:35;;;;;;;;;2.75;2.75;;;;;-145.45;100.00;57426.63;5081502;27;45238;-72
2022/08/04 08:04:01;;;;;;;;;2.50;2.50;;;;;-145.45;100.00;57426.63;5081260;27;45415;-73
2022/08/04 08:06:28;;;;;;;;;2.50;0.75;;;;;-145.45;100.00;57426.63;5072271;28;45289;-74
2022/08/04 08:08:54;;;;;;;;;1.75;1.75;;;;;-145.45;100.00;57426.63;5080516;27;45277;-73
2022/08/04 08:11:20;;;;;;;;;1.00;1.00;;;;;-145.45;100.00;57426.63;5081457;28;45400;-73
2022/08/04 08:13:46;;;;;;;;;1.25;1.00;;;;;-145.45;100.00;57426.63;5080997;27;45328;-73
2022/08/04 08:16:12;;;;;;;;;2.00;2.00;;;;;-145.45;100.00;57426.63;5081081;27;45360;-73
2022/08/04 08:18:37;;;;;;;;;2.50;1.50;;;;;-145.45;100.00;57426.63;5062384;28;45356;-73
2022/08/04 08:21:03;;;;;;;;;5.25;1.00;;;;;-145.45;100.00;57426.63;5081291;27;45217;-73
2022/08/04 08:23:30;;;;;;;;;1.00;1.00;;;;;-145.45;100.00;57426.63;5080951;27;45620;-73
2022/08/04 08:25:57;;;;;;;;;0.75;0.75;;;;;-145.45;100.00;57426.63;5072221;28;47956;-73
2022/08/04 08:28:23;;;;;;;;;1.50;1.50;;;;;-145.45;100.00;57426.63;5079131;27;45942;-73
2022/08/04 08:30:49;;;;;;;;;3.00;2.00;;;;;-145.45;100.00;57426.63;5081019;28;45344;-73
2022/08/04 08:33:16;;;;;;;;;2.25;1.00;;;;;-145.45;100.00;57426.63;5080654;27;45503;-73
2022/08/04 08:36:06;;;;;;;;;1.50;1.00;;;;;-145.45;100.00;57426.63;5085737;27;46444;-73
2022/08/04 08:38:53;;;;;;;;;1.50;1.50;;;;;-145.45;100.00;57426.63;5088439;27;44701;-73
2022/08/04 08:41:49;;;;;;;;;0.75;0.75;;;;;-145.45;100.00;57426.63;5101300;27;45367;-73
2022/08/04 08:44:50;;;;;;;;;2.00;2.00;;;;;-145.45;100.00;57426.63;5101066;27;45408;-73
2022/08/04 08:47:34;;;;;;;;;2.00;1.00;;;;;-145.45;100.00;57426.63;5100772;27;45976;-73
2022/08/04 08:50:26;;;;;;;;;0.75;0.75;;;;;-145.45;100.00;57426.63;5082424;27;45979;-73
2022/08/04 08:53:37;;;;;;;;;2.25;1.00;;;;;-145.45;100.00;57426.63;5101021;27;45379;-73
2022/08/04 08:56:27;;;;;;;;;0.00;0.00;;;;;-145.45;100.00;57426.63;5100745;27;45477;-73
2022/08/04 08:59:16;;;;;;;;;1.75;1.50;;;;;-145.45;100.00;57426.63;5100770;27;46296;-73
2022/08/04 09:02:12;;;;;;;;;1.25;1.25;;;;;-145.45;100.00;57426.63;5086115;27;45493;-73
2022/08/04 09:04:58;;;;;;;;;0.00;0.00;;;;;-145.45;100.00;57426.63;5101011;27;45438;-74
2022/08/04 09:08:18;;;;;;;;;1.75;1.75;;;;;-145.45;100.00;57426.63;5100718;27;45371;-73
2022/08/04 09:11:23;;;;;;;;;1.25;0.75;;;;;-145.45;100.00;57426.63;5010701;28;45439;-73
2022/08/04 09:14:15;;;;;;;;;0.50;0.50;;;;;-145.45;100.00;57426.63;5016784;28;45370;-73
2022/08/04 09:17:12;;;;;;;;;1.00;1.00;;;;;-145.45;100.00;57426.63;5102178;27;45347;-71
2022/08/04 09:20:00;;;;;;;;;0.25;0.25;;;;;-145.45;100.00;57426.63;5099044;27;45345;-73
2022/08/04 09:22:46;;;;;;;;;1.00;1.00;;;;;-145.45;100.00;57426.63;5100661;27;45345;-73
2022/08/04 09:25:19;;;;;;;;;1.50;1.00;;;;;-145.45;100.00;57426.63;5082088;27;45264;-72
2022/08/04 09:27:50;;;;;;;;;0.00;0.00;;;;;-145.45;100.00;57426.63;5086114;27;45335;-73
2022/08/04 09:30:25;;;;;;;;;1.00;0.00;;;;;-145.45;100.00;57426.63;5080203;28;45328;-73
2022/08/04 09:33:10;;;;;;;;;0.00;0.00;;;;;-145.45;100.00;57426.63;5079717;27;45339;-72
2022/08/04 09:35:47;;;;;;;;;0.00;0.00;;;;;-145.45;100.00;57426.63;5084557;27;45330;-73
2022/08/04 09:38:34;;;;;;;;;1.00;1.00;;;;;-145.45;100.00;57426.63;5086038;27;45340;-73
2022/08/04 09:41:31;;;;;;;;;0.00;0.00;;;;;-145.45;100.00;57426.63;5100317;27;45530;-73
2022/08/04 09:44:39;;;;;;;;;1.00;1.00;;;;;-145.45;100.00;57426.63;5100133;27;45943;-73
2022/08/04 09:47:28;;;;;;;;;0.20;0.20;;;;;-145.45;100.00;57426.63;5100118;27;45339;-73
2022/08/04 09:50:24;;;;;;;;;0.00;0.00;;;;;-145.45;100.00;57426.63;5100449;27;45262;-73
2022/08/04 09:53:19;;;;;;;;;0.00;0.00;;;;;-145.45;100.00;57426.63;5100271;27;45310;-72
2022/08/04 09:55:45;;;;;;;;;1.00;1.00;;;;;-145.45;100.00;57426.63;5099982;27;45424;-72
2022/08/04 09:58:52;;;;;;;;;1.00;1.00;;;;;-145.45;100.00;57426.63;5081752;27;45324;-72
2022/08/04 10:01:21;;;;;;;;;0.25;0.25;;;;;-145.45;100.00;57426.63;5059873;27;45541;-72
2022/08/04 10:03:54;;;;;;;;;0.50;0.50;;;;;-145.45;100.00;57426.63;5099717;27;45492;-73
2022/08/04 10:06:33;;;;;;;;;0.00;0.00;;;;;-145.45;100.00;57426.63;5099831;27;46380;-73
2022/08/04 10:09:19;;;;;;;;;1.60;0.00;;;;;-145.45;100.00;57426.63;5099786;27;45300;-73
2022/08/04 10:11:56;;;;;;;;;1.80;0.00;;;;;-145.45;100.00;57426.63;5099465;27;45536;-73
2022/08/04 10:14:46;;;;;;;;;0.50;0.25;;;;;-145.45;100.00;57426.63;5099950;27;45552;-73
2022/08/04 10:17:31;;;;;;;;;2.40;0.00;;;;;-145.45;100.00;57426.63;5099475;27;45334;-72
2022/08/04 10:20:07;;;;;;;;;0.00;0.00;;;;;-145.45;100.00;57426.63;5099977;27;45391;-72
2022/08/04 10:22:38;;;;;;;;;0.20;0.20;;;;;-145.45;100.00;57426.63;5081744;27;45430;-72
2022/08/04 10:25:31;;;;;;;;;0.80;0.80;;;;;-145.45;100.00;57426.63;5099771;27;45325;-73
2022/08/04 10:28:01;;;;;;;;;0.80;0.80;;;;;-145.45;100.00;57426.63;5083372;27;45232;-72
2022/08/04 10:30:31;;;;;;;;;0.00;0.00;;;;;-145.45;100.00;57426.63;5079405;28;45481;-72
2022/08/04 10:33:10;;;;;;;;;1.60;0.00;;;;;-145.45;100.00;57426.63;5081954;27;45264;-73
2022/08/04 10:35:49;;;;;;;;;1.20;0.00;;;;;-145.45;100.00;57426.63;5087572;27;45388;-73
2022/08/04 10:38:24;;;;;;;;;0.80;0.80;;;;;-145.45;100.00;57426.63;5089791;27;45233;-72
2022/08/04 10:40:59;;;;;;;;;0.00;0.00;;;;;-145.45;100.00;57426.63;5084570;27;45252;-73
2022/08/04 10:43:40;;;;;;;;;0.00;0.00;;;;;-145.45;100.00;57426.63;5103544;27;44659;-73
2022/08/04 10:46:13;;;;;;;;;0.20;0.20;;;;;-145.45;100.00;57426.63;5102842;27;45281;-73
2022/08/04 10:48:41;;;;;;;;;0.00;0.00;;;;;-145.45;100.00;57426.63;5103193;27;45581;-72
2022/08/04 10:51:20;;;;;;;;;0.40;0.00;;;;;-145.45;100.00;57426.63;5102992;27;45331;-73
2022/08/04 10:53:52;;;;;;;;;0.60;0.60;;;;;-145.45;100.00;57426.63;5103030;27;45251;-72
2022/08/04 10:56:37;;;;;;;;;1.40;0.00;;;;;-145.45;100.00;57426.63;5102914;27;45400;-73
2022/08/04 10:59:11;;;;;;;;;0.20;0.20;;;;;-145.45;100.00;57426.63;5083794;27;46770;-73
2022/08/04 11:01:43;;;;;;;;;0.00;0.00;;;;;-145.45;100.00;57426.63;5102809;27;45390;-73
2022/08/04 11:04:20;;;;;;;;;0.80;0.80;;;;;-145.45;100.00;57426.63;5084695;27;45387;-73
2022/08/04 11:06:47;;;;;;;;;0.00;0.00;;;;;-145.45;100.00;57426.63;5084173;27;46155;-73
2022/08/04 11:09:15;;;;;;;;;1.80;1.00;;;;;-145.45;100.00;57426.63;5102718;27;45443;-73
2022/08/04 11:11:43;;;;;;;;;0.00;0.00;;;;;-145.45;100.00;57426.63;5102597;27;45240;-73
2022/08/04 11:14:19;;;;;;;;;1.80;0.80;;;;;-145.45;100.00;57426.63;5102865;27;45473;-73
2022/08/04 11:17:03;;;;;;;;;0.20;0.20;;;;;-145.45;100.00;57426.63;5083970;27;46078;-73
2022/08/04 11:19:45;;;;;;;;;0.00;0.00;;;;;-145.45;100.00;57426.63;5102741;27;46579;-73
2022/08/04 11:22:24;;;;;;;;;0.00;0.00;;;;;-145.45;100.00;57426.63;5102724;27;45235;-72
2022/08/04 11:25:01;;;;;;;;;0.20;0.20;;;;;-145.45;100.00;57426.63;5102622;27;45564;-73
2022/08/04 11:27:44;;;;;;;;;1.00;0.00;;;;;-145.45;100.00;57426.63;5090388;27;45364;-73
2022/08/04 11:30:13;;;;;;;;;0.60;0.60;;;;;-145.45;100.00;57426.63;5082044;27;46670;-73
2022/08/04 11:32:45;;;;;;;;;0.20;0.20;;;;;-145.45;100.00;57426.63;5081894;28;45331;-73
2022/08/04 11:35:37;;;;;;;;;0.40;0.40;;;;;-145.45;100.00;57426.63;5086601;27;45566;-73
2022/08/04 11:38:21;;;;;;;;;0.00;0.00;;;;;-145.45;100.00;57426.63;5081606;27;45248;-73
2022/08/04 11:40:50;;;;;;;;;0.80;0.80;;;;;-145.45;100.00;57426.63;5081718;28;45482;-74
2022/08/04 11:43:23;;;;;;;;;1.00;1.00;;;;;-145.45;100.00;57426.63;5080851;27;45309;-73
2022/08/04 11:45:59;;;;;;;;;2.60;1.00;;;;;-145.45;100.00;57426.63;5063578;27;45392;-73
2022/08/04 11:48:44;;;;;;;;;0.20;0.20;;;;;-145.45;100.00;57426.63;5081727;28;45332;-73
2022/08/04 11:51:10;;;;;;;;;1.00;1.00;;;;;-145.45;100.00;57426.63;5070113;27;48253;-74
2022/08/04 11:53:38;;;;;;;;;0.00;0.00;;;;;-145.45;100.00;57426.63;5102197;27;45351;-73